createdAt,value
2018-08-19T00:01:08.081Z,101676.16
2018-08-19T00:03:36.221Z,101665.25
2018-08-19T00:06:04.666Z,101668.38
2018-08-19T00:08:32.793Z,101670.73
2018-08-19T00:11:02.977Z,101671.38
2018-08-19T00:13:31.105Z,101670.72
2018-08-19T00:15:59.278Z,101672.98
2018-08-19T00:18:27.425Z,101672.64
2018-08-19T00:20:55.603Z,101670.47
2018-08-19T00:23:23.753Z,101669.72
2018-08-19T00:25:51.908Z,101672.93
2018-08-19T00:28:20.844Z,101668.22
2018-08-19T00:30:48.985Z,101673.03
2018-08-19T00:33:17.111Z,101675.39
2018-08-19T00:35:45.253Z,101676.33
2018-08-19T00:38:14.881Z,101675.48
2018-08-19T00:40:43.468Z,101685.09
2018-08-19T00:43:12.157Z,101684.06
2018-08-19T00:45:40.342Z,101679.62
2018-08-19T00:48:11.082Z,101680.20
2018-08-19T00:50:39.384Z,101682.45
2018-08-19T00:53:08.380Z,101672.94
2018-08-19T00:55:41.934Z,101672.41
2018-08-19T00:58:14.959Z,101672.50
2018-08-19T01:00:43.188Z,101672.22
2018-08-19T01:03:11.750Z,101666.94
2018-08-19T01:05:39.971Z,101667.98
2018-08-19T01:08:09.097Z,101667.51
2018-08-19T01:10:37.245Z,101664.14
2018-08-19T01:13:05.368Z,101661.13
2018-08-19T01:15:33.504Z,101668.95
2018-08-19T01:18:01.649Z,101667.16
2018-08-19T01:20:29.852Z,101673.75
2018-08-19T01:22:57.956Z,101666.59
2018-08-19T01:25:26.115Z,101671.39
2018-08-19T01:27:54.245Z,101669.52
2018-08-19T01:30:25.926Z,101673.95
2018-08-19T01:32:54.087Z,101670.64
2018-08-19T01:35:27.061Z,101670.45
2018-08-19T01:37:55.170Z,101669.82
2018-08-19T01:40:23.339Z,101669.91
2018-08-19T01:42:51.493Z,101666.42
2018-08-19T01:45:19.616Z,101663.41
2018-08-19T01:47:47.757Z,101671.80
2018-08-19T01:50:17.563Z,101672.64
2018-08-19T01:52:48.096Z,101667.17
2018-08-19T01:55:16.205Z,101664.63
2018-08-19T01:57:48.446Z,101664.63
2018-08-19T02:00:17.907Z,101662.93
2018-08-19T02:03:03.220Z,101655.20
2018-08-19T02:05:31.365Z,101662.73
2018-08-19T02:08:01.933Z,101666.31
2018-08-19T02:10:31.321Z,101662.28
2018-08-19T02:13:00.164Z,101669.06
2018-08-19T02:15:29.321Z,101660.68
2018-08-19T02:17:59.572Z,101656.91
2018-08-19T02:20:33.605Z,101655.21
2018-08-19T02:23:03.898Z,101657.84
2018-08-19T02:25:44.815Z,101659.63
2018-08-19T02:28:13.601Z,101656.71
2018-08-19T02:30:49.041Z,101651.70
2018-08-19T02:33:17.193Z,101652.39
2018-08-19T02:35:48.433Z,101650.61
2018-08-19T02:38:16.589Z,101649.38
2018-08-19T02:40:44.712Z,101652.48
2018-08-19T02:43:12.836Z,101654.65
2018-08-19T02:45:40.957Z,101647.59
2018-08-19T02:48:09.114Z,101642.84
2018-08-19T02:50:37.289Z,101643.31
2018-08-19T02:53:05.810Z,101641.42
2018-08-19T02:55:33.937Z,101643.48
2018-08-19T02:58:07.380Z,101641.02
2018-08-19T03:00:35.513Z,101644.59
2018-08-19T03:03:03.642Z,101636.43
2018-08-19T03:05:31.744Z,101636.14
2018-08-19T03:08:00.213Z,101634.82
2018-08-19T03:10:28.327Z,101637.55
2018-08-19T03:12:56.469Z,101637.81
2018-08-19T03:15:24.633Z,101639.98
2018-08-19T03:17:52.757Z,101636.20
2018-08-19T03:20:21.286Z,101642.88
2018-08-19T03:22:49.380Z,101637.15
2018-08-19T03:25:17.485Z,101635.54
2018-08-19T03:27:45.606Z,101630.47
2018-08-19T03:30:15.157Z,101630.83
2018-08-19T03:32:49.617Z,101629.59
2018-08-19T03:35:19.169Z,101627.52
2018-08-19T03:37:47.670Z,101624.41
2018-08-19T03:40:15.765Z,101625.91
2018-08-19T03:42:43.886Z,101625.53
2018-08-19T03:45:18.373Z,101621.20
2018-08-19T03:47:46.902Z,101620.91
2018-08-19T03:50:19.920Z,101622.13
2018-08-19T03:52:48.069Z,101625.53
2018-08-19T03:55:21.656Z,101624.13
2018-08-19T03:57:50.200Z,101630.80
2018-08-19T04:00:19.193Z,101633.72
2018-08-19T04:02:47.438Z,101622.34
2018-08-19T04:05:15.575Z,101624.77
2018-08-19T04:07:44.267Z,101622.89
2018-08-19T04:10:12.801Z,101631.35
2018-08-19T04:12:40.929Z,101634.75
2018-08-19T04:15:09.697Z,101638.61
2018-08-19T04:17:37.801Z,101635.30
2018-08-19T04:20:06.662Z,101634.55
2018-08-19T04:22:34.798Z,101636.63
2018-08-19T04:25:02.937Z,101637.00
2018-08-19T04:27:31.054Z,101634.84
2018-08-19T04:29:59.202Z,101628.72
2018-08-19T04:32:30.408Z,101630.42
2018-08-19T04:34:58.967Z,101630.53
2018-08-19T04:37:27.316Z,101625.06
2018-08-19T04:39:55.465Z,101625.17
2018-08-19T04:42:23.812Z,101628.30
2018-08-19T04:44:57.343Z,101622.47
2018-08-19T04:47:28.789Z,101629.83
2018-08-19T04:49:56.945Z,101634.94
2018-08-19T04:52:25.462Z,101631.47
2018-08-19T04:54:54.713Z,101636.86
2018-08-19T04:57:22.922Z,101633.91
2018-08-19T04:59:51.069Z,101638.53
2018-08-19T05:02:20.161Z,101640.69
2018-08-19T05:04:48.195Z,101635.44
2018-08-19T05:07:16.298Z,101636.30
2018-08-19T05:09:44.454Z,101638.13
2018-08-19T05:12:12.645Z,101645.62
2018-08-19T05:14:40.747Z,101646.76
2018-08-19T05:17:08.892Z,101644.02
2018-08-19T05:19:37.054Z,101640.39
2018-08-19T05:22:10.682Z,101646.97
2018-08-19T05:24:39.396Z,101645.70
2018-08-19T05:27:08.413Z,101647.20
2018-08-19T05:29:36.741Z,101655.18
2018-08-19T05:32:05.144Z,101652.23
2018-08-19T05:34:36.492Z,101650.08
2018-08-19T05:37:04.993Z,101652.38
2018-08-19T05:39:33.144Z,101645.33
2018-08-19T05:42:13.220Z,101647.77
2018-08-19T05:44:41.913Z,101650.27
2018-08-19T05:47:11.145Z,101650.05
2018-08-19T05:49:42.266Z,101653.98
2018-08-19T05:52:15.633Z,101655.48
2018-08-19T05:54:47.969Z,101652.11
2018-08-19T05:57:17.838Z,101655.28
2018-08-19T05:59:46.979Z,101654.83
2018-08-19T06:02:15.160Z,101652.28
2018-08-19T06:04:43.618Z,101650.23
2018-08-19T06:07:11.732Z,101648.33
2018-08-19T06:09:39.841Z,101646.10
2018-08-19T06:12:07.983Z,101649.17
2018-08-19T06:14:36.105Z,101643.52
2018-08-19T06:17:05.120Z,101640.65
2018-08-19T06:19:33.913Z,101638.37
2018-08-19T06:22:02.207Z,101632.38
2018-08-19T06:24:30.411Z,101636.49
2018-08-19T06:26:58.482Z,101639.91
2018-08-19T06:29:44.873Z,101641.16
2018-08-19T06:32:20.843Z,101637.04
2018-08-19T06:34:49.707Z,101637.89
2018-08-19T06:37:18.107Z,101642.64
2018-08-19T06:39:46.281Z,101638.44
2018-08-19T06:42:14.377Z,101634.39
2018-08-19T06:44:42.485Z,101630.12
2018-08-19T06:47:10.667Z,101635.62
2018-08-19T06:49:44.946Z,101637.59
2018-08-19T06:52:13.145Z,101632.44
2018-08-19T06:54:41.241Z,101635.27
2018-08-19T06:57:10.176Z,101636.56
2018-08-19T06:59:38.655Z,101639.47
2018-08-19T07:02:07.653Z,101640.76
2018-08-19T07:04:40.300Z,101642.86
2018-08-19T07:07:10.263Z,101637.45
2018-08-19T07:09:39.394Z,101633.69
2018-08-19T07:12:11.633Z,101639.17
2018-08-19T07:14:39.787Z,101636.63
2018-08-19T07:17:07.944Z,101633.13
2018-08-19T07:19:36.869Z,101629.95
2018-08-19T07:22:06.307Z,101636.00
2018-08-19T07:24:35.780Z,101632.02
2018-08-19T07:27:03.935Z,101633.69
2018-08-19T07:29:32.498Z,101635.23
2018-08-19T07:32:00.601Z,101633.17
2018-08-19T07:34:28.726Z,101629.47
2018-08-19T07:36:58.066Z,101627.20
2018-08-19T07:39:26.817Z,101625.34
2018-08-19T07:41:55.092Z,101631.33
2018-08-19T07:44:23.248Z,101618.94
2018-08-19T07:46:51.358Z,101621.64
2018-08-19T07:49:19.698Z,101628.10
2018-08-19T07:51:47.842Z,101629.34
2018-08-19T07:54:16.013Z,101627.45
2018-08-19T07:56:44.179Z,101631.62
2018-08-19T07:59:14.105Z,101628.57
2018-08-19T08:01:42.307Z,101631.85
2018-08-19T08:04:10.772Z,101630.14
2018-08-19T08:06:38.922Z,101640.03
2018-08-19T08:09:09.335Z,101636.58
2018-08-19T08:11:37.477Z,101637.03
2018-08-19T08:14:05.941Z,101638.07
2018-08-19T08:16:41.575Z,101639.80
2018-08-19T08:19:09.809Z,101634.74
2018-08-19T08:21:38.090Z,101632.69
2018-08-19T08:24:06.816Z,101635.05
2018-08-19T08:26:37.509Z,101640.25
2018-08-19T08:29:05.848Z,101633.25
2018-08-19T08:31:41.021Z,101637.28
2018-08-19T08:34:09.222Z,101631.87
2018-08-19T08:36:37.356Z,101630.94
2018-08-19T08:39:07.167Z,101636.88
2018-08-19T08:41:35.321Z,101637.88
2018-08-19T08:44:03.663Z,101628.52
2018-08-19T08:46:31.817Z,101631.83
2018-08-19T08:48:59.983Z,101628.17
2018-08-19T08:51:28.106Z,101627.26
2018-08-19T08:53:56.724Z,101641.64
2018-08-19T08:56:25.016Z,101629.98
2018-08-19T08:58:53.178Z,101633.55
2018-08-19T09:01:21.303Z,101632.32
2018-08-19T09:03:49.413Z,101631.22
2018-08-19T09:06:22.938Z,101637.00
2018-08-19T09:08:51.072Z,101630.24
2018-08-19T09:11:19.195Z,101636.34
2018-08-19T09:13:47.439Z,101626.91
2018-08-19T09:16:15.586Z,101624.20
2018-08-19T09:18:43.768Z,101620.31
2018-08-19T09:21:11.962Z,101615.23
2018-08-19T09:23:40.100Z,101607.30
2018-08-19T09:26:08.350Z,101606.55
2018-08-19T09:28:36.457Z,101597.57
2018-08-19T09:31:04.759Z,101593.31
2018-08-19T09:33:33.604Z,101594.91
2018-08-19T09:36:01.739Z,101594.86
2018-08-19T09:38:29.904Z,101588.75
2018-08-19T09:40:58.144Z,101588.33
2018-08-19T09:43:26.313Z,101590.29
2018-08-19T09:45:54.483Z,101581.31
2018-08-19T09:48:22.601Z,101580.91
2018-08-19T09:50:50.700Z,101568.58
2018-08-19T09:53:18.807Z,101575.09
2018-08-19T09:56:19.771Z,101575.38
2018-08-19T09:58:52.113Z,101574.81
2018-08-19T10:01:25.568Z,101570.76
2018-08-19T10:03:53.717Z,101574.52
2018-08-19T10:06:21.867Z,101569.15
2018-08-19T10:08:49.969Z,101568.59
2018-08-19T10:11:18.117Z,101570.42
2018-08-19T10:13:48.549Z,101572.37
2018-08-19T10:16:16.753Z,101569.06
2018-08-19T10:18:44.952Z,101566.20
2018-08-19T10:21:18.307Z,101567.30
2018-08-19T10:23:46.434Z,101565.71
2018-08-19T10:26:14.602Z,101558.11
2018-08-19T10:28:42.717Z,101560.86
2018-08-19T10:31:16.315Z,101554.20
2018-08-19T10:33:44.559Z,101550.69
2018-08-19T10:36:12.681Z,101543.95
2018-08-19T10:38:40.839Z,101543.73
2018-08-19T10:41:08.949Z,101542.61
2018-08-19T10:43:37.093Z,101541.52
2018-08-19T10:46:05.285Z,101545.91
2018-08-19T10:48:33.370Z,101537.78
2018-08-19T10:51:02.626Z,101534.94
2018-08-19T10:53:30.765Z,101536.17
2018-08-19T10:56:01.648Z,101538.91
2018-08-19T10:58:29.742Z,101526.41
2018-08-19T11:00:57.874Z,101523.81
2018-08-19T11:03:26.042Z,101523.91
2018-08-19T11:05:55.473Z,101515.39
2018-08-19T11:08:23.614Z,101513.74
2018-08-19T11:10:51.728Z,101506.85
2018-08-19T11:13:21.477Z,101502.16
2018-08-19T11:15:55.649Z,101507.67
2018-08-19T11:18:27.755Z,101497.91
2018-08-19T11:21:59.549Z,101498.13
2018-08-19T11:24:28.031Z,101498.55
2018-08-19T11:27:01.222Z,101499.41
2018-08-19T11:29:29.664Z,101489.59
2018-08-19T11:31:57.775Z,101489.62
2018-08-19T11:34:25.894Z,101492.75
2018-08-19T11:36:54.019Z,101483.17
2018-08-19T11:39:28.622Z,101483.77
2018-08-19T11:41:58.485Z,101484.03
2018-08-19T11:44:26.728Z,101477.75
2018-08-19T11:46:54.848Z,101486.36
2018-08-19T11:49:22.979Z,101481.80
2018-08-19T11:52:00.415Z,101479.07
2018-08-19T11:54:29.218Z,101474.77
2018-08-19T11:57:03.719Z,101478.73
2018-08-19T11:59:40.117Z,101481.34
2018-08-19T12:02:10.659Z,101474.13
2018-08-19T12:04:38.838Z,101464.71
2018-08-19T12:07:06.985Z,101462.65
2018-08-19T12:09:35.272Z,101465.62
2018-08-19T12:12:03.451Z,101459.10
2018-08-19T12:14:33.168Z,101459.26
2018-08-19T12:17:01.991Z,101451.66
2018-08-19T12:19:32.300Z,101445.28
2018-08-19T12:22:02.617Z,101441.45
2018-08-19T12:24:42.589Z,101431.53
2018-08-19T12:27:12.090Z,101436.39
2018-08-19T12:29:41.361Z,101429.02
2018-08-19T12:32:16.152Z,101427.27
2018-08-19T12:34:46.305Z,101414.83
2018-08-19T12:37:15.568Z,101412.98
2018-08-19T12:39:43.696Z,101416.14
2018-08-19T12:42:11.876Z,101407.95
2018-08-19T12:44:40.404Z,101400.26
2018-08-19T12:47:18.202Z,101404.54
2018-08-19T12:49:48.934Z,101401.77
2018-08-19T12:52:19.155Z,101399.03
2018-08-19T12:55:23.595Z,101387.94
2018-08-19T12:57:57.204Z,101383.44
2018-08-19T13:00:26.370Z,101374.58
2018-08-19T13:02:54.729Z,101367.42
2018-08-19T13:05:23.227Z,101366.40
2018-08-19T13:07:51.519Z,101359.13
2018-08-19T13:10:19.972Z,101354.32
2018-08-19T13:12:56.575Z,101361.70
2018-08-19T13:15:26.165Z,101358.95
2018-08-19T13:17:54.330Z,101346.38
2018-08-19T13:20:22.461Z,101350.16
2018-08-19T13:22:55.883Z,101350.25
2018-08-19T13:25:24.731Z,101350.91
2018-08-19T13:27:52.886Z,101339.61
2018-08-19T13:30:21.596Z,101338.94
2018-08-19T13:32:50.425Z,101332.69
2018-08-19T13:35:18.728Z,101333.72
2018-08-19T13:37:46.911Z,101323.31
2018-08-19T13:40:15.120Z,101326.83
2018-08-19T13:42:43.395Z,101320.31
2018-08-19T13:45:14.208Z,101320.52
2018-08-19T13:47:43.653Z,101315.70
2018-08-19T13:50:11.983Z,101314.00
2018-08-19T13:52:40.542Z,101302.42
2018-08-19T13:55:12.127Z,101303.10
2018-08-19T13:57:40.253Z,101303.63
2018-08-19T14:00:12.169Z,101297.61
2018-08-19T14:02:40.318Z,101297.82
2018-08-19T14:05:08.449Z,101290.94
2018-08-19T14:07:36.590Z,101285.58
2018-08-19T14:10:06.149Z,101286.92
2018-08-19T14:12:34.313Z,101281.73
2018-08-19T14:15:02.453Z,101279.38
2018-08-19T14:17:30.597Z,101274.02
2018-08-19T14:19:58.773Z,101281.52
2018-08-19T14:22:27.593Z,101271.63
2018-08-19T14:24:55.747Z,101272.14
2018-08-19T14:27:24.865Z,101263.05
2018-08-19T14:29:53.026Z,101264.55
2018-08-19T14:32:32.501Z,101263.70
2018-08-19T14:35:02.010Z,101269.07
2018-08-19T14:37:30.643Z,101268.22
2018-08-19T14:39:59.728Z,101262.70
2018-08-19T14:42:27.861Z,101259.02
2018-08-19T14:44:56.851Z,101248.13
2018-08-19T14:47:25.154Z,101250.66
2018-08-19T14:49:53.640Z,101251.11
2018-08-19T14:52:21.778Z,101238.56
2018-08-19T14:54:49.925Z,101230.41
2018-08-19T14:57:18.045Z,101226.84
2018-08-19T14:59:46.194Z,101233.84
2018-08-19T15:02:14.323Z,101229.87
2018-08-19T15:04:43.421Z,101233.55
2018-08-19T15:07:11.654Z,101218.45
2018-08-19T15:09:39.858Z,101221.64
2018-08-19T15:12:14.334Z,101211.71
2018-08-19T15:14:42.896Z,101212.75
2018-08-19T15:17:11.588Z,101208.58
2018-08-19T15:19:43.447Z,101201.19
2018-08-19T15:22:11.582Z,101203.86
2018-08-19T15:24:39.738Z,101207.23
2018-08-19T15:27:07.915Z,101204.53
2018-08-19T15:29:39.861Z,101204.44
2018-08-19T15:32:08.101Z,101199.20
2018-08-19T15:34:36.305Z,101202.09
2018-08-19T15:37:04.462Z,101200.25
2018-08-19T15:39:32.602Z,101197.97
2018-08-19T15:42:00.757Z,101194.45
2018-08-19T15:44:28.999Z,101198.30
2018-08-19T15:46:57.156Z,101190.27
2018-08-19T15:49:25.372Z,101199.32
2018-08-19T15:51:53.689Z,101192.50
2018-08-19T15:54:21.937Z,101193.84
2018-08-19T15:56:50.044Z,101187.95
2018-08-19T15:59:18.220Z,101190.99
2018-08-19T16:01:46.345Z,101192.16
2018-08-19T16:04:19.710Z,101197.19
2018-08-19T16:06:49.090Z,101191.00
2018-08-19T16:09:19.026Z,101185.30
2018-08-19T16:11:47.809Z,101181.11
2018-08-19T16:14:24.417Z,101181.31
2018-08-19T16:16:53.259Z,101180.80
2018-08-19T16:19:21.457Z,101179.63
2018-08-19T16:21:51.764Z,101178.95
2018-08-19T16:24:19.926Z,101182.30
2018-08-19T16:26:48.956Z,101173.10
2018-08-19T16:29:17.158Z,101173.45
2018-08-19T16:31:45.482Z,101171.22
2018-08-19T16:34:13.773Z,101172.41
2018-08-19T16:36:41.941Z,101165.70
2018-08-19T16:39:12.608Z,101164.21
2018-08-19T16:41:40.719Z,101166.55
2018-08-19T16:44:09.172Z,101163.70
2018-08-19T16:46:37.368Z,101164.35
2018-08-19T16:49:06.145Z,101164.86
2018-08-19T16:51:34.355Z,101166.72
2018-08-19T16:54:02.708Z,101165.70
2018-08-19T16:56:31.009Z,101165.50
2018-08-19T16:58:59.488Z,101162.13
2018-08-19T17:01:27.727Z,101159.94
2018-08-19T17:03:56.511Z,101158.60
2018-08-19T17:06:25.505Z,101160.11
2018-08-19T17:08:53.677Z,101161.11
2018-08-19T17:11:21.848Z,101159.78
2018-08-19T17:13:49.984Z,101159.72
2018-08-19T17:16:18.111Z,101155.91
2018-08-19T17:18:47.366Z,101160.95
2018-08-19T17:21:15.508Z,101157.62
2018-08-19T17:23:47.573Z,101158.28
2018-08-19T17:26:18.793Z,101155.11
2018-08-19T17:28:46.857Z,101158.25
2018-08-19T17:31:15.019Z,101155.84
2018-08-19T17:33:43.176Z,101158.44
2018-08-19T17:36:11.325Z,101156.11
2018-08-19T17:38:39.485Z,101157.91
2018-08-19T17:41:07.604Z,101157.59
2018-08-19T17:43:42.171Z,101161.72
2018-08-19T17:46:13.289Z,101160.88
2018-08-19T17:48:42.337Z,101162.52
2018-08-19T17:51:23.102Z,101160.81
2018-08-19T17:53:51.352Z,101155.89
2018-08-19T17:56:19.744Z,101163.36
2018-08-19T17:58:48.528Z,101157.86
2018-08-19T18:01:17.022Z,101165.91
2018-08-19T18:03:45.177Z,101163.85
2018-08-19T18:06:13.345Z,101167.16
2018-08-19T18:08:45.645Z,101167.84
2018-08-19T18:11:13.797Z,101165.44
2018-08-19T18:13:41.982Z,101169.55
2018-08-19T18:16:10.134Z,101165.70
2018-08-19T18:18:38.257Z,101167.97
2018-08-19T18:21:06.435Z,101166.31
2018-08-19T18:23:34.605Z,101167.73
2018-08-19T18:26:02.757Z,101171.63
2018-08-19T18:28:31.994Z,101168.26
2018-08-19T18:31:09.295Z,101173.52
2018-08-19T18:33:50.995Z,101169.54
2018-08-19T18:36:20.481Z,101164.55
2018-08-19T18:38:48.662Z,101173.38
2018-08-19T18:41:25.091Z,101184.36
2018-08-19T18:43:56.701Z,101186.42
2018-08-19T18:46:25.171Z,101189.47
2018-08-19T18:49:01.538Z,101194.67
2018-08-19T18:51:30.742Z,101196.72
2018-08-19T18:53:59.142Z,101201.20
2018-08-19T18:56:28.337Z,101204.72
2018-08-19T18:58:56.505Z,101197.41
2018-08-19T19:01:24.637Z,101194.81
2018-08-19T19:03:52.825Z,101197.23
2018-08-19T19:06:20.998Z,101201.36
2018-08-19T19:08:49.108Z,101202.72
2018-08-19T19:11:20.072Z,101198.86
2018-08-19T19:13:48.374Z,101192.95
2018-08-19T19:16:18.672Z,101191.01
2018-08-19T19:18:46.817Z,101191.00
2018-08-19T19:21:14.934Z,101190.92
2018-08-19T19:23:44.343Z,101189.73
2018-08-19T19:26:12.500Z,101190.84
2018-08-19T19:28:40.626Z,101189.14
2018-08-19T19:31:16.037Z,101185.72
2018-08-19T19:33:44.145Z,101183.25
2018-08-19T19:36:18.313Z,101189.45
2018-08-19T19:38:51.917Z,101191.83
2018-08-19T19:41:23.065Z,101191.58
2018-08-19T19:43:51.240Z,101184.49
2018-08-19T19:46:19.394Z,101186.44
2018-08-19T19:48:47.703Z,101188.59
2018-08-19T19:51:15.838Z,101181.86
2018-08-19T19:53:44.026Z,101185.30
2018-08-19T19:56:13.187Z,101185.92
2018-08-19T19:58:42.276Z,101179.48
2018-08-19T20:01:10.431Z,101183.73
2018-08-19T20:03:46.647Z,101183.63
2018-08-19T20:06:14.796Z,101179.20
2018-08-19T20:08:42.940Z,101182.34
2018-08-19T20:11:19.254Z,101178.55
2018-08-19T20:13:47.713Z,101176.42
2018-08-19T20:16:15.871Z,101175.22
2018-08-19T20:18:44.012Z,101174.77
2018-08-19T20:21:17.542Z,101178.19
2018-08-19T20:23:45.677Z,101180.13
2018-08-19T20:26:13.863Z,101188.22
2018-08-19T20:28:42.000Z,101180.52
2018-08-19T20:31:10.173Z,101181.12
2018-08-19T20:33:38.313Z,101184.14
2018-08-19T20:36:06.435Z,101177.15
2018-08-19T20:38:34.552Z,101177.14
2018-08-19T20:41:02.672Z,101182.73
2018-08-19T20:43:30.800Z,101175.64
2018-08-19T20:45:58.943Z,101177.95
2018-08-19T20:48:27.069Z,101176.17
2018-08-19T20:50:55.213Z,101176.47
2018-08-19T20:53:23.336Z,101177.56
2018-08-19T20:55:51.468Z,101179.27
2018-08-19T20:58:19.593Z,101169.03
2018-08-19T21:00:47.704Z,101169.08
2018-08-19T21:03:15.835Z,101169.20
2018-08-19T21:05:43.947Z,101169.33
2018-08-19T21:08:13.817Z,101165.84
2018-08-19T21:10:43.800Z,101162.09
2018-08-19T21:13:13.401Z,101160.04
2018-08-19T21:15:46.837Z,101156.38
2018-08-19T21:18:14.986Z,101155.87
2018-08-19T21:20:43.520Z,101159.47
2018-08-19T21:23:11.832Z,101154.59
2018-08-19T21:25:59.863Z,101150.47
2018-08-19T21:28:28.105Z,101143.84
2018-08-19T21:30:56.316Z,101148.38
2018-08-19T21:33:24.472Z,101156.89
2018-08-19T21:35:54.097Z,101140.11
2018-08-19T21:38:22.223Z,101145.06
2018-08-19T21:40:53.924Z,101145.02
2018-08-19T21:43:25.885Z,101138.81
2018-08-19T21:45:53.997Z,101142.89
2018-08-19T21:48:22.117Z,101139.13
2018-08-19T21:50:50.282Z,101136.12
2018-08-19T21:53:19.324Z,101132.56
2018-08-19T21:55:48.730Z,101132.58
2018-08-19T21:58:16.889Z,101132.23
2018-08-19T22:00:48.224Z,101123.30
2018-08-19T22:03:21.944Z,101127.09
2018-08-19T22:05:52.292Z,101126.41
2018-08-19T22:08:22.213Z,101125.48
2018-08-19T22:10:50.367Z,101125.61
2018-08-19T22:13:18.505Z,101123.27
2018-08-19T22:15:47.257Z,101122.94
2018-08-19T22:18:19.761Z,101123.78
2018-08-19T22:21:02.137Z,101125.59
2018-08-19T22:23:35.304Z,101121.13
2018-08-19T22:26:03.457Z,101120.16
2018-08-19T22:28:31.761Z,101116.88
2018-08-19T22:31:10.005Z,101130.03
2018-08-19T22:33:38.440Z,101125.64
2018-08-19T22:36:06.597Z,101120.82
2018-08-19T22:38:34.745Z,101124.31
2018-08-19T22:41:02.878Z,101128.48
2018-08-19T22:43:31.030Z,101127.47
2018-08-19T22:45:59.183Z,101127.30
2018-08-19T22:48:37.393Z,101120.70
2018-08-19T22:51:06.065Z,101119.33
2018-08-19T22:53:34.206Z,101115.27
2018-08-19T22:56:02.486Z,101107.24
2018-08-19T22:58:30.607Z,101109.55
2018-08-19T23:00:58.767Z,101107.16
2018-08-19T23:03:27.178Z,101109.20
2018-08-19T23:05:55.365Z,101107.59
2018-08-19T23:08:27.853Z,101106.48
2018-08-19T23:10:57.656Z,101104.81
2018-08-19T23:13:37.343Z,101105.44
2018-08-19T23:16:07.524Z,101101.88
2018-08-19T23:18:36.057Z,101107.06
2018-08-19T23:21:04.246Z,101100.64
2018-08-19T23:23:32.666Z,101103.92
2018-08-19T23:26:00.933Z,101099.09
2018-08-19T23:28:29.054Z,101101.37
2018-08-19T23:30:57.635Z,101101.86
2018-08-19T23:33:25.761Z,101101.86
2018-08-19T23:35:53.970Z,101100.05
2018-08-19T23:38:22.149Z,101095.71
2018-08-19T23:40:50.333Z,101092.08
2018-08-19T23:43:18.605Z,101098.23
2018-08-19T23:45:46.770Z,101103.38
2018-08-19T23:48:14.918Z,101095.25
2018-08-19T23:50:43.047Z,101091.05
2018-08-19T23:53:12.220Z,101091.66
2018-08-19T23:55:40.775Z,101091.88
2018-08-19T23:58:09.152Z,101097.91
